Time;durP1;ratioP1;P1;durP2;ratioP2;P2;SDS_P1;SDS_P2;PMS_P1;PMS_P2;Temp;Humidity;BMP_temperature;BMP_pressure;BME280_temperature;BME280_humidity;BME280_pressure;Samples;Min_cycle;Max_cycle;Signal;HPM_P1;HPM_P2
2022/07/07 00:00:34;;;;;;;1.83;0.77;;;;;;;;;;5092230;27;83218;-43
2022/07/07 00:03:02;;;;;;;1.30;0.90;;;;;;;;;;5097058;27;81520;-43
2022/07/07 00:05:31;;;;;;;1.20;0.90;;;;;;;;;;5091320;27;81944;-43
2022/07/07 00:08:00;;;;;;;5.03;1.40;;;;;;;;;;5085188;27;81756;-42
2022/07/07 00:10:28;;;;;;;2.77;1.30;;;;;;;;;;5085854;27;83347;-42
2022/07/07 00:12:58;;;;;;;2.93;1.50;;;;;;;;;;5085090;27;81569;-42
2022/07/07 00:15:27;;;;;;;1.83;1.47;;;;;;;;;;5086914;27;82800;-43
2022/07/07 00:17:55;;;;;;;2.03;1.13;;;;;;;;;;5101502;27;83988;-43
2022/07/07 00:20:23;;;;;;;3.10;1.30;;;;;;;;;;5105913;27;83212;-43
2022/07/07 00:22:52;;;;;;;1.50;1.30;;;;;;;;;;5106473;27;81678;-43
2022/07/07 00:25:20;;;;;;;3.17;1.13;;;;;;;;;;5104668;27;81927;-44
2022/07/07 00:27:48;;;;;;;1.30;1.20;;;;;;;;;;5106651;27;82783;-43
2022/07/07 00:30:18;;;;;;;1.10;1.00;;;;;;;;;;5095441;27;81956;-43
2022/07/07 00:32:46;;;;;;;1.37;1.27;;;;;;;;;;5085638;27;82197;-43
2022/07/07 00:35:15;;;;;;;1.70;0.90;;;;;;;;;;5096367;27;81858;-43
2022/07/07 00:37:43;;;;;;;1.83;1.40;;;;;;;;;;5105914;27;82846;-43
2022/07/07 00:40:12;;;;;;;2.20;1.40;;;;;;;;;;5105658;27;83128;-43
2022/07/07 00:42:40;;;;;;;1.60;1.03;;;;;;;;;;5105674;27;81675;-43
2022/07/07 00:45:09;;;;;;;1.27;1.17;;;;;;;;;;5103372;27;81979;-43
2022/07/07 00:47:40;;;;;;;2.20;1.43;;;;;;;;;;5105007;27;81964;-43
2022/07/07 00:50:09;;;;;;;1.37;1.27;;;;;;;;;;5104703;27;85278;-43
2022/07/07 00:52:37;;;;;;;5.50;1.10;;;;;;;;;;5104212;27;83972;-43
2022/07/07 00:55:08;;;;;;;2.53;1.30;;;;;;;;;;5096240;27;82222;-43
2022/07/07 00:57:37;;;;;;;1.50;1.17;;;;;;;;;;5084064;27;82570;-43
2022/07/07 01:00:06;;;;;;;2.73;1.33;;;;;;;;;;5090106;27;83166;-44
2022/07/07 01:02:34;;;;;;;1.30;1.20;;;;;;;;;;5105277;27;83897;-43
2022/07/07 01:05:04;;;;;;;2.00;1.57;;;;;;;;;;5101457;27;82040;-43
2022/07/07 01:07:33;;;;;;;1.50;1.27;;;;;;;;;;5084714;27;83949;-43
2022/07/07 01:10:01;;;;;;;3.17;1.53;;;;;;;;;;5084747;27;84471;-43
2022/07/07 01:12:33;;;;;;;2.13;1.37;;;;;;;;;;5084025;27;83890;-42
2022/07/07 01:15:02;;;;;;;1.40;1.30;;;;;;;;;;5084745;27;82986;-42
2022/07/07 01:17:30;;;;;;;1.30;1.20;;;;;;;;;;5086903;27;84037;-42
2022/07/07 01:19:58;;;;;;;1.30;1.20;;;;;;;;;;5087633;27;83171;-42
2022/07/07 01:22:29;;;;;;;2.53;1.10;;;;;;;;;;5088122;27;83923;-43
2022/07/07 01:24:58;;;;;;;1.33;1.20;;;;;;;;;;5088738;27;81856;-42
2022/07/07 01:27:27;;;;;;;1.23;1.13;;;;;;;;;;5087690;27;82946;-43
2022/07/07 01:29:56;;;;;;;2.27;1.10;;;;;;;;;;5090100;27;84315;-43
2022/07/07 01:32:24;;;;;;;2.00;1.23;;;;;;;;;;5106815;27;81729;-43
2022/07/07 01:34:53;;;;;;;1.20;1.00;;;;;;;;;;5104400;27;81862;-43
2022/07/07 01:37:24;;;;;;;0.77;0.73;;;;;;;;;;5087280;27;81905;-43
2022/07/07 01:39:53;;;;;;;0.70;0.70;;;;;;;;;;5086907;27;84872;-43
2022/07/07 01:42:22;;;;;;;1.00;0.90;;;;;;;;;;5087786;27;84822;-43
2022/07/07 01:44:51;;;;;;;0.70;0.70;;;;;;;;;;5090516;27;82084;-42
2022/07/07 01:47:20;;;;;;;1.30;1.10;;;;;;;;;;5107826;27;82639;-43
2022/07/07 01:49:49;;;;;;;0.70;0.70;;;;;;;;;;5107786;27;84384;-42
2022/07/07 01:52:17;;;;;;;1.23;0.90;;;;;;;;;;5107738;27;82969;-43
2022/07/07 01:54:45;;;;;;;1.27;1.10;;;;;;;;;;5093616;27;81972;-43
2022/07/07 01:57:15;;;;;;;2.23;1.30;;;;;;;;;;5107914;27;81760;-42
2022/07/07 01:59:44;;;;;;;1.07;0.97;;;;;;;;;;5106542;27;83691;-42
2022/07/07 02:02:13;;;;;;;2.10;1.50;;;;;;;;;;5086901;27;82830;-42
2022/07/07 02:04:42;;;;;;;2.10;1.20;;;;;;;;;;5086980;27;82975;-43
2022/07/07 02:07:10;;;;;;;2.90;1.47;;;;;;;;;;5107937;27;83151;-43
2022/07/07 02:09:38;;;;;;;1.73;1.60;;;;;;;;;;5107305;27;84317;-43
2022/07/07 02:12:07;;;;;;;3.13;2.13;;;;;;;;;;5088589;27;82924;-43
2022/07/07 02:14:37;;;;;;;2.80;2.10;;;;;;;;;;5086278;27;81779;-42
2022/07/07 02:17:07;;;;;;;2.70;1.83;;;;;;;;;;5069799;27;82647;-42
2022/07/07 02:19:35;;;;;;;2.53;1.93;;;;;;;;;;5086789;27;84074;-43
2022/07/07 02:22:04;;;;;;;3.03;2.27;;;;;;;;;;5104725;27;83690;-43
2022/07/07 02:24:32;;;;;;;3.83;2.53;;;;;;;;;;5107171;27;81748;-43
2022/07/07 02:27:01;;;;;;;5.80;3.53;;;;;;;;;;5087770;27;83012;-43
2022/07/07 02:29:30;;;;;;;5.17;2.87;;;;;;;;;;5085652;27;85125;-43
2022/07/07 02:31:58;;;;;;;3.87;2.40;;;;;;;;;;5104494;27;84896;-43
2022/07/07 02:34:28;;;;;;;6.63;3.30;;;;;;;;;;5107169;27;82481;-43
2022/07/07 02:36:57;;;;;;;4.27;2.73;;;;;;;;;;5087034;27;83886;-43
2022/07/07 02:39:25;;;;;;;6.30;2.93;;;;;;;;;;5086132;27;83195;-43
2022/07/07 02:41:53;;;;;;;4.00;2.70;;;;;;;;;;5087768;27;82960;-43
2022/07/07 02:44:21;;;;;;;3.70;2.60;;;;;;;;;;5086536;27;81826;-43
2022/07/07 02:46:50;;;;;;;5.30;2.90;;;;;;;;;;5105143;27;83076;-43
2022/07/07 02:49:19;;;;;;;5.27;3.13;;;;;;;;;;5107147;27;83082;-43
2022/07/07 02:51:48;;;;;;;5.87;3.40;;;;;;;;;;5105239;27;82801;-43
2022/07/07 02:54:17;;;;;;;5.03;3.87;;;;;;;;;;5106637;27;82646;-43
2022/07/07 02:56:46;;;;;;;5.33;3.40;;;;;;;;;;5089234;27;83046;-43
2022/07/07 02:59:14;;;;;;;5.43;3.17;;;;;;;;;;5085966;27;83134;-43
2022/07/07 03:01:42;;;;;;;5.37;3.73;;;;;;;;;;5099813;27;82974;-43
2022/07/07 03:04:11;;;;;;;5.60;3.83;;;;;;;;;;5106799;27;82345;-43
2022/07/07 03:06:39;;;;;;;6.37;3.63;;;;;;;;;;5090310;27;82745;-43
2022/07/07 03:09:09;;;;;;;4.70;3.00;;;;;;;;;;5085950;27;84314;-43
2022/07/07 03:11:37;;;;;;;5.67;3.23;;;;;;;;;;5086325;27;83898;-43
2022/07/07 03:14:05;;;;;;;6.53;3.77;;;;;;;;;;5086986;27;82150;-43
2022/07/07 03:16:33;;;;;;;4.30;3.13;;;;;;;;;;5100904;27;82779;-43
2022/07/07 03:19:02;;;;;;;4.53;3.17;;;;;;;;;;5104929;27;83928;-43
2022/07/07 03:21:30;;;;;;;4.37;2.93;;;;;;;;;;5106554;27;83726;-43
2022/07/07 03:23:59;;;;;;;4.07;2.93;;;;;;;;;;5105080;27;81900;-43
2022/07/07 03:26:28;;;;;;;3.53;2.50;;;;;;;;;;5091797;27;81845;-43
2022/07/07 03:28:57;;;;;;;4.57;2.97;;;;;;;;;;5085191;27;84058;-43
2022/07/07 03:31:25;;;;;;;3.77;2.57;;;;;;;;;;5096863;27;82979;-43
2022/07/07 03:33:54;;;;;;;2.83;2.40;;;;;;;;;;5104614;27;82157;-43
2022/07/07 03:36:22;;;;;;;2.70;2.43;;;;;;;;;;5093484;27;82824;-43
2022/07/07 03:38:50;;;;;;;3.57;2.50;;;;;;;;;;5085042;27;82982;-43
2022/07/07 03:41:19;;;;;;;4.77;2.80;;;;;;;;;;5085310;27;83883;-43
2022/07/07 03:43:48;;;;;;;3.63;2.50;;;;;;;;;;5085016;27;82709;-43
2022/07/07 03:46:17;;;;;;;4.47;2.47;;;;;;;;;;5085052;27;83557;-43
2022/07/07 03:48:45;;;;;;;3.00;2.40;;;;;;;;;;5085599;27;83025;-43
2022/07/07 03:51:13;;;;;;;4.97;2.60;;;;;;;;;;5084910;27;82882;-43
2022/07/07 04:00:47;;;;;;;4.63;2.80;;;;;;;;;;5042237;27;82715;-43
2022/07/07 04:03:15;;;;;;;6.00;2.30;;;;;;;;;;5044500;27;82835;-43
2022/07/07 04:05:44;;;;;;;3.43;2.30;;;;;;;;;;5044140;28;81994;-42
2022/07/07 04:08:12;;;;;;;4.70;3.33;;;;;;;;;;5043886;27;83881;-42
2022/07/07 04:10:41;;;;;;;6.30;4.30;;;;;;;;;;5043827;27;83947;-42
2022/07/07 04:13:09;;;;;;;6.53;3.30;;;;;;;;;;5043816;28;84767;-42
2022/07/07 04:15:37;;;;;;;5.10;3.63;;;;;;;;;;5041998;27;82055;-42
2022/07/07 04:18:07;;;;;;;7.73;4.10;;;;;;;;;;5044520;28;82781;-42
2022/07/07 04:20:36;;;;;;;7.67;4.20;;;;;;;;;;5044105;28;82972;-42
2022/07/07 04:23:04;;;;;;;4.93;4.43;;;;;;;;;;5043608;28;82997;-43
2022/07/07 04:25:34;;;;;;;7.77;4.33;;;;;;;;;;5043324;28;81958;-42
2022/07/07 04:28:02;;;;;;;8.77;4.67;;;;;;;;;;5044194;27;82935;-42
2022/07/07 04:30:30;;;;;;;6.60;4.13;;;;;;;;;;5043706;27;83185;-42
2022/07/07 04:32:59;;;;;;;7.83;4.17;;;;;;;;;;5043838;27;84049;-43
2022/07/07 04:35:29;;;;;;;6.60;4.27;;;;;;;;;;5043376;27;83039;-43
2022/07/07 04:37:57;;;;;;;6.83;4.37;;;;;;;;;;5043260;27;83945;-43
2022/07/07 04:40:25;;;;;;;6.13;3.63;;;;;;;;;;5042102;27;83169;-43
2022/07/07 04:42:54;;;;;;;6.40;3.70;;;;;;;;;;5042770;27;82812;-43
2022/07/07 04:45:28;;;;;;;5.57;3.97;;;;;;;;;;5043253;27;82504;-43
2022/07/07 04:47:57;;;;;;;8.07;3.70;;;;;;;;;;5043610;27;84204;-49
2022/07/07 04:50:25;;;;;;;4.63;2.63;;;;;;;;;;5043446;27;83092;-46
2022/07/07 04:52:55;;;;;;;5.37;3.00;;;;;;;;;;5043975;28;84036;-46
2022/07/07 04:55:23;;;;;;;6.07;2.80;;;;;;;;;;5047099;27;81939;-46
2022/07/07 04:57:52;;;;;;;2.93;2.03;;;;;;;;;;5047530;27;82753;-46
2022/07/07 05:00:20;;;;;;;7.13;2.47;;;;;;;;;;5045915;28;84024;-46
2022/07/07 05:02:48;;;;;;;3.53;2.13;;;;;;;;;;5046780;27;83753;-46
2022/07/07 05:05:17;;;;;;;1.70;1.37;;;;;;;;;;5046550;27;81867;-46
2022/07/07 05:07:45;;;;;;;3.20;1.90;;;;;;;;;;5046840;27;82875;-47
2022/07/07 05:10:14;;;;;;;2.43;1.90;;;;;;;;;;5046702;28;83168;-46
2022/07/07 05:12:43;;;;;;;2.50;1.60;;;;;;;;;;5046993;28;84044;-46
2022/07/07 05:15:11;;;;;;;2.47;1.90;;;;;;;;;;5046768;27;81949;-46
2022/07/07 05:17:40;;;;;;;1.93;1.53;;;;;;;;;;5044107;28;83157;-48
2022/07/07 05:20:09;;;;;;;1.90;1.50;;;;;;;;;;5046691;27;82937;-49
2022/07/07 05:22:37;;;;;;;3.07;1.67;;;;;;;;;;5047370;27;81807;-48
2022/07/07 05:25:06;;;;;;;2.23;1.20;;;;;;;;;;5045991;27;82689;-50
2022/07/07 05:27:36;;;;;;;1.23;1.13;;;;;;;;;;5046380;28;83006;-48
2022/07/07 05:30:05;;;;;;;2.60;1.40;;;;;;;;;;5045457;27;81957;-47
2022/07/07 05:32:33;;;;;;;3.00;1.03;;;;;;;;;;5046714;27;82808;-47
2022/07/07 05:35:01;;;;;;;1.67;0.90;;;;;;;;;;5046367;27;82014;-47
2022/07/07 05:37:29;;;;;;;3.50;1.00;;;;;;;;;;5046761;28;83913;-48
2022/07/07 05:39:58;;;;;;;3.13;1.17;;;;;;;;;;5046359;27;83076;-47
2022/07/07 05:42:27;;;;;;;2.00;0.93;;;;;;;;;;5045996;27;83103;-46
2022/07/07 05:44:56;;;;;;;1.90;0.80;;;;;;;;;;5044513;28;81967;-47
2022/07/07 05:47:25;;;;;;;6.03;1.00;;;;;;;;;;5046505;27;81984;-47
2022/07/07 05:49:53;;;;;;;0.70;0.70;;;;;;;;;;5040330;28;83907;-47
2022/07/07 05:52:21;;;;;;;1.50;0.90;;;;;;;;;;5046135;28;84767;-46
2022/07/07 05:54:50;;;;;;;1.20;0.67;;;;;;;;;;5046427;27;81985;-47
2022/07/07 05:57:18;;;;;;;2.50;1.27;;;;;;;;;;5045052;28;82671;-47
2022/07/07 05:59:46;;;;;;;1.57;0.80;;;;;;;;;;5045161;27;83249;-47
2022/07/07 06:02:16;;;;;;;1.40;0.70;;;;;;;;;;5045469;27;82812;-47
2022/07/07 06:04:44;;;;;;;1.03;0.60;;;;;;;;;;5046365;27;81913;-47
2022/07/07 06:07:13;;;;;;;1.27;0.63;;;;;;;;;;5046095;28;82899;-47
2022/07/07 06:09:41;;;;;;;4.17;0.87;;;;;;;;;;5046002;28;83013;-46
2022/07/07 06:12:10;;;;;;;3.97;0.73;;;;;;;;;;5046414;28;83949;-47
2022/07/07 06:14:38;;;;;;;1.33;0.63;;;;;;;;;;5045383;27;82924;-47
2022/07/07 06:17:06;;;;;;;1.10;0.60;;;;;;;;;;5045063;28;83957;-47
2022/07/07 06:19:36;;;;;;;2.60;0.70;;;;;;;;;;5045692;27;82570;-47
2022/07/07 06:22:05;;;;;;;0.93;0.50;;;;;;;;;;5045673;28;83955;-47
2022/07/07 06:24:33;;;;;;;0.83;0.40;;;;;;;;;;5045577;27;82050;-46
2022/07/07 06:27:01;;;;;;;1.17;0.50;;;;;;;;;;5045654;28;83971;-48
2022/07/07 06:29:30;;;;;;;2.30;0.60;;;;;;;;;;5045301;27;84409;-46
2022/07/07 06:31:58;;;;;;;2.30;0.50;;;;;;;;;;5046091;27;82578;-46
2022/07/07 06:34:26;;;;;;;1.90;0.50;;;;;;;;;;5045525;27;81888;-46
2022/07/07 06:37:00;;;;;;;0.67;0.40;;;;;;;;;;5045255;27;82743;-46
2022/07/07 06:39:28;;;;;;;1.50;0.70;;;;;;;;;;5045079;27;84086;-46
2022/07/07 06:41:56;;;;;;;0.40;0.40;;;;;;;;;;5045408;28;84795;-46
2022/07/07 06:44:30;;;;;;;0.73;0.47;;;;;;;;;;5045315;28;81956;-47
2022/07/07 06:46:59;;;;;;;0.40;0.40;;;;;;;;;;5044900;28;83905;-46
2022/07/07 06:49:27;;;;;;;0.83;0.40;;;;;;;;;;5043774;27;83051;-46
2022/07/07 06:51:55;;;;;;;1.23;0.53;;;;;;;;;;5035577;28;82001;-46
2022/07/07 06:54:25;;;;;;;0.30;0.30;;;;;;;;;;5025028;28;81858;-46
2022/07/07 06:56:53;;;;;;;0.40;0.40;;;;;;;;;;5037845;28;83028;-46
2022/07/07 06:59:22;;;;;;;1.33;0.43;;;;;;;;;;5045161;28;84203;-46
2022/07/07 07:01:50;;;;;;;1.57;0.60;;;;;;;;;;5045328;28;83838;-46
2022/07/07 07:04:18;;;;;;;0.20;0.20;;;;;;;;;;5045434;27;82631;-46
2022/07/07 07:06:47;;;;;;;2.03;0.73;;;;;;;;;;5045311;28;82953;-46
2022/07/07 07:09:15;;;;;;;1.50;0.47;;;;;;;;;;5045158;28;83289;-46
2022/07/07 07:11:45;;;;;;;2.07;0.40;;;;;;;;;;5044395;28;83862;-45
2022/07/07 07:14:14;;;;;;;0.30;0.30;;;;;;;;;;5043866;27;81836;-45
2022/07/07 07:16:42;;;;;;;0.93;0.47;;;;;;;;;;5044755;28;81877;-46
2022/07/07 07:19:10;;;;;;;2.97;0.67;;;;;;;;;;5044622;28;84020;-48
2022/07/07 07:21:39;;;;;;;1.27;0.50;;;;;;;;;;5044896;28;84022;-46
2022/07/07 07:24:07;;;;;;;0.73;0.27;;;;;;;;;;5044977;27;82063;-46
2022/07/07 07:26:35;;;;;;;0.60;0.23;;;;;;;;;;5045119;27;82927;-45
2022/07/07 07:29:05;;;;;;;2.17;0.30;;;;;;;;;;5044449;27;84317;-46
2022/07/07 07:31:33;;;;;;;1.03;0.50;;;;;;;;;;5044398;28;84956;-46
2022/07/07 07:34:02;;;;;;;1.73;0.30;;;;;;;;;;5044448;27;82074;-46
2022/07/07 07:36:30;;;;;;;2.73;0.40;;;;;;;;;;5044815;28;83901;-46
2022/07/07 07:38:59;;;;;;;1.93;0.77;;;;;;;;;;5044906;27;83099;-46
2022/07/07 07:41:27;;;;;;;0.30;0.30;;;;;;;;;;5044864;28;82556;-46
2022/07/07 07:43:55;;;;;;;1.07;0.40;;;;;;;;;;5044322;27;82357;-46
2022/07/07 07:46:25;;;;;;;0.70;0.60;;;;;;;;;;5044122;27;83069;-46
2022/07/07 07:48:53;;;;;;;3.00;0.57;;;;;;;;;;5044376;27;84023;-46
2022/07/07 07:51:22;;;;;;;1.73;0.30;;;;;;;;;;5044414;27;82818;-46
2022/07/07 07:53:50;;;;;;;1.80;0.50;;;;;;;;;;5042970;28;84679;-47
2022/07/07 07:56:18;;;;;;;0.50;0.37;;;;;;;;;;5027268;28;82012;-46
2022/07/07 07:58:47;;;;;;;0.77;0.40;;;;;;;;;;5044554;28;83068;-46
2022/07/07 08:01:15;;;;;;;0.20;0.20;;;;;;;;;;5043954;28;81887;-46
2022/07/07 08:03:45;;;;;;;3.13;0.60;;;;;;;;;;5044223;28;82001;-46
2022/07/07 08:06:13;;;;;;;2.00;0.30;;;;;;;;;;5044448;28;84894;-46
2022/07/07 08:08:42;;;;;;;0.37;0.37;;;;;;;;;;5044677;28;83087;-46
2022/07/07 08:11:11;;;;;;;0.57;0.40;;;;;;;;;;5044507;27;82871;-46
2022/07/07 08:13:39;;;;;;;1.70;0.60;;;;;;;;;;5043674;27;81868;-46
2022/07/07 08:16:08;;;;;;;2.10;0.50;;;;;;;;;;5044277;27;84016;-46
2022/07/07 08:18:36;;;;;;;0.20;0.20;;;;;;;;;;5044077;27;83883;-46
2022/07/07 08:21:07;;;;;;;2.87;0.47;;;;;;;;;;5043077;28;82394;-46
2022/07/07 08:23:35;;;;;;;1.00;0.33;;;;;;;;;;5043024;27;82427;-46
2022/07/07 08:26:03;;;;;;;1.10;0.30;;;;;;;;;;5036464;27;82880;-45
2022/07/07 08:28:32;;;;;;;0.37;0.37;;;;;;;;;;5043249;27;83054;-46
2022/07/07 08:31:07;;;;;;;0.70;0.63;;;;;;;;;;5043960;27;84060;-46
2022/07/07 08:33:36;;;;;;;1.60;0.40;;;;;;;;;;5043737;27;81933;-46
2022/07/07 08:36:04;;;;;;;0.53;0.40;;;;;;;;;;5027401;28;82908;-46
2022/07/07 08:38:34;;;;;;;0.40;0.40;;;;;;;;;;5034307;28;84060;-46
2022/07/07 08:41:02;;;;;;;1.93;0.30;;;;;;;;;;5043923;28;83896;-46
2022/07/07 08:43:30;;;;;;;0.30;0.30;;;;;;;;;;5043628;27;83090;-46
2022/07/07 08:45:59;;;;;;;3.20;0.40;;;;;;;;;;5043770;27;82866;-46
2022/07/07 08:48:27;;;;;;;1.00;0.50;;;;;;;;;;5043830;27;84037;-45
2022/07/07 08:50:56;;;;;;;1.17;0.23;;;;;;;;;;5043025;27;82876;-46
2022/07/07 08:53:24;;;;;;;1.93;0.40;;;;;;;;;;5042942;27;81993;-46
2022/07/07 08:56:00;;;;;;;4.80;0.50;;;;;;;;;;5041911;27;82759;-45
2022/07/07 08:58:29;;;;;;;1.93;0.50;;;;;;;;;;5042576;27;82085;-45
2022/07/07 09:01:17;;;;;;;2.43;0.47;;;;;;;;;;5043426;27;84802;-45
2022/07/07 09:03:45;;;;;;;1.90;0.73;;;;;;;;;;5042798;27;82111;-46
2022/07/07 09:06:14;;;;;;;1.50;0.30;;;;;;;;;;5041456;27;82725;-46
2022/07/07 09:08:49;;;;;;;1.17;0.50;;;;;;;;;;5041429;28;84471;-46
2022/07/07 09:11:18;;;;;;;2.20;0.20;;;;;;;;;;5042474;27;85008;-47
2022/07/07 09:13:47;;;;;;;0.77;0.17;;;;;;;;;;5042353;27;83012;-47
2022/07/07 09:16:16;;;;;;;2.23;0.50;;;;;;;;;;5043211;27;83893;-47
2022/07/07 09:18:45;;;;;;;0.20;0.20;;;;;;;;;;5043366;27;83050;-47
2022/07/07 09:21:26;;;;;;;1.80;0.40;;;;;;;;;;5043655;27;82744;-47
2022/07/07 09:23:55;;;;;;;1.20;0.60;;;;;;;;;;5043598;27;81914;-47
2022/07/07 09:26:35;;;;;;;0.30;0.30;;;;;;;;;;5043570;28;83939;-47
2022/07/07 09:29:04;;;;;;;0.60;0.43;;;;;;;;;;5043538;27;81895;-47
2022/07/07 09:31:47;;;;;;;0.40;0.40;;;;;;;;;;5043073;28;83865;-47
2022/07/07 09:34:16;;;;;;;2.43;0.50;;;;;;;;;;5042546;27;82894;-47
2022/07/07 09:39:39;;;;;;;0.93;0.50;;;;;;;;;;5046978;28;84125;-47
2022/07/07 09:42:29;;;;;;;2.97;0.43;;;;;;;;;;5046839;27;82314;-48
2022/07/07 09:44:58;;;;;;;1.83;0.70;;;;;;;;;;5046815;27;81903;-48
2022/07/07 09:47:26;;;;;;;0.10;0.10;;;;;;;;;;5046525;27;81948;-47
2022/07/07 09:50:01;;;;;;;1.20;0.47;;;;;;;;;;5046730;27;83081;-47
2022/07/07 09:52:30;;;;;;;0.37;0.30;;;;;;;;;;5047224;27;82721;-47
2022/07/07 09:54:58;;;;;;;0.10;0.10;;;;;;;;;;5046570;27;81964;-47
2022/07/07 09:57:26;;;;;;;0.30;0.20;;;;;;;;;;5046096;27;83001;-47
2022/07/07 09:59:56;;;;;;;0.93;0.40;;;;;;;;;;5045774;28;83960;-47
2022/07/07 10:02:31;;;;;;;1.93;0.30;;;;;;;;;;5046890;27;83745;-47
2022/07/07 10:04:59;;;;;;;0.93;0.60;;;;;;;;;;5046507;28;81981;-48
2022/07/07 10:07:28;;;;;;;0.30;0.30;;;;;;;;;;5046518;27;83911;-47
2022/07/07 10:09:57;;;;;;;0.27;0.27;;;;;;;;;;5046419;28;84241;-48
2022/07/07 10:12:26;;;;;;;1.03;0.67;;;;;;;;;;5046108;27;83933;-48
2022/07/07 10:15:00;;;;;;;0.67;0.40;;;;;;;;;;5046502;27;81966;-47
2022/07/07 10:17:28;;;;;;;0.93;0.40;;;;;;;;;;5046135;27;81766;-47
2022/07/07 10:19:56;;;;;;;0.40;0.40;;;;;;;;;;5045848;27;83198;-47
2022/07/07 10:22:27;;;;;;;0.30;0.30;;;;;;;;;;5046196;27;81963;-47
2022/07/07 10:24:56;;;;;;;0.67;0.30;;;;;;;;;;5045645;27;82643;-47
2022/07/07 10:27:24;;;;;;;2.43;0.63;;;;;;;;;;5045790;28;83950;-47
2022/07/07 10:29:53;;;;;;;1.67;0.47;;;;;;;;;;5045523;27;81860;-47
2022/07/07 10:32:31;;;;;;;0.20;0.20;;;;;;;;;;5045427;27;84019;-47
2022/07/07 10:34:59;;;;;;;2.67;0.40;;;;;;;;;;5045910;27;81996;-47
2022/07/07 10:37:28;;;;;;;0.50;0.50;;;;;;;;;;5045903;27;83074;-47
2022/07/07 10:39:57;;;;;;;0.37;0.37;;;;;;;;;;5045440;27;83177;-47
2022/07/07 10:42:40;;;;;;;0.67;0.43;;;;;;;;;;5046223;27;82939;-47
2022/07/07 10:45:10;;;;;;;0.57;0.40;;;;;;;;;;5037501;27;81943;-46
2022/07/07 10:47:40;;;;;;;0.83;0.50;;;;;;;;;;5045424;28;82804;-47
2022/07/07 10:50:23;;;;;;;0.30;0.30;;;;;;;;;;5045092;27;83854;-46
2022/07/07 10:52:51;;;;;;;0.53;0.53;;;;;;;;;;5045240;27;85378;-46
2022/07/07 10:55:51;;;;;;;0.20;0.20;;;;;;;;;;5045495;27;81824;-46
2022/07/07 10:58:38;;;;;;;2.93;0.40;;;;;;;;;;5044581;27;83423;-46
2022/07/07 11:01:09;;;;;;;1.03;0.80;;;;;;;;;;5045232;28;84095;-47
2022/07/07 11:03:39;;;;;;;0.40;0.40;;;;;;;;;;5045581;27;82682;-46
2022/07/07 11:06:07;;;;;;;0.73;0.33;;;;;;;;;;5045766;27;81963;-46
2022/07/07 11:08:36;;;;;;;2.43;0.60;;;;;;;;;;5045759;27;81642;-46
2022/07/07 11:11:05;;;;;;;1.30;0.47;;;;;;;;;;5045176;27;81971;-46
2022/07/07 11:13:34;;;;;;;0.93;0.30;;;;;;;;;;5045345;27;81702;-46
2022/07/07 11:16:15;;;;;;;0.80;0.60;;;;;;;;;;5044503;27;82758;-46
2022/07/07 11:18:49;;;;;;;0.40;0.40;;;;;;;;;;5045314;27;81848;-46
2022/07/07 11:21:17;;;;;;;0.47;0.47;;;;;;;;;;5044595;27;83248;-46
2022/07/07 11:23:48;;;;;;;1.13;0.67;;;;;;;;;;5044662;28;83947;-46
2022/07/07 11:26:17;;;;;;;0.87;0.50;;;;;;;;;;5044585;27;81947;-47
2022/07/07 11:28:50;;;;;;;0.83;0.40;;;;;;;;;;5045297;27;82517;-46
2022/07/07 11:31:18;;;;;;;1.67;0.43;;;;;;;;;;5044676;28;84101;-46
2022/07/07 11:33:51;;;;;;;0.80;0.40;;;;;;;;;;5045107;27;81589;-46
2022/07/07 11:36:20;;;;;;;1.63;0.30;;;;;;;;;;5044706;27;81955;-46
2022/07/07 11:38:49;;;;;;;0.73;0.50;;;;;;;;;;5043506;27;82192;-46
2022/07/07 11:41:17;;;;;;;0.40;0.30;;;;;;;;;;5044414;27;84053;-46
2022/07/07 11:43:54;;;;;;;1.00;0.40;;;;;;;;;;5044460;27;83968;-47
2022/07/07 11:46:23;;;;;;;1.07;0.40;;;;;;;;;;5045037;27;81842;-47
2022/07/07 11:48:53;;;;;;;0.63;0.43;;;;;;;;;;5045068;27;82647;-46
2022/07/07 11:51:28;;;;;;;1.90;0.60;;;;;;;;;;5044934;27;81939;-47
2022/07/07 11:53:57;;;;;;;2.00;0.53;;;;;;;;;;5044871;27;82839;-47
2022/07/07 11:56:29;;;;;;;1.60;0.70;;;;;;;;;;5044564;27;82014;-47
2022/07/07 11:58:58;;;;;;;1.17;0.80;;;;;;;;;;5044750;27;82852;-46
2022/07/07 12:01:27;;;;;;;0.80;0.37;;;;;;;;;;5043661;27;84037;-47
2022/07/07 12:03:56;;;;;;;5.00;1.00;;;;;;;;;;5044703;27;82984;-46
2022/07/07 12:06:26;;;;;;;0.90;0.60;;;;;;;;;;5044376;27;82761;-47
2022/07/07 12:08:55;;;;;;;1.70;0.47;;;;;;;;;;5044348;27;83039;-46
2022/07/07 12:11:23;;;;;;;5.83;0.87;;;;;;;;;;5044292;27;83061;-47
2022/07/07 12:13:53;;;;;;;1.87;0.47;;;;;;;;;;5044375;27;82962;-47
2022/07/07 12:16:22;;;;;;;2.83;0.50;;;;;;;;;;5044378;27;81978;-47
2022/07/07 12:18:50;;;;;;;0.50;0.50;;;;;;;;;;5044203;27;82746;-46
2022/07/07 12:21:23;;;;;;;0.97;0.47;;;;;;;;;;5044237;28;83014;-46
2022/07/07 12:23:53;;;;;;;6.03;0.73;;;;;;;;;;5044597;27;82912;-46
2022/07/07 12:26:25;;;;;;;0.80;0.80;;;;;;;;;;5044322;28;82416;-47
2022/07/07 12:28:58;;;;;;;0.70;0.60;;;;;;;;;;5043828;27;82589;-46
2022/07/07 12:31:26;;;;;;;2.70;0.70;;;;;;;;;;5043337;27;84145;-47
2022/07/07 12:34:10;;;;;;;2.13;0.70;;;;;;;;;;5043851;27;83684;-46
2022/07/07 12:36:39;;;;;;;1.80;0.87;;;;;;;;;;5043906;27;81902;-46
2022/07/07 12:39:08;;;;;;;2.83;0.90;;;;;;;;;;5043886;27;82820;-47
2022/07/07 12:41:36;;;;;;;1.40;0.50;;;;;;;;;;5043730;27;81832;-46
2022/07/07 12:44:14;;;;;;;1.73;0.70;;;;;;;;;;5043433;27;83035;-46
2022/07/07 12:47:02;;;;;;;1.83;0.60;;;;;;;;;;5043766;27;82641;-46
2022/07/07 12:49:31;;;;;;;3.30;0.90;;;;;;;;;;5044197;27;82913;-46
2022/07/07 12:52:01;;;;;;;0.47;0.47;;;;;;;;;;5043787;27;83289;-46
2022/07/07 12:54:30;;;;;;;1.03;0.53;;;;;;;;;;5043831;27;82971;-46
2022/07/07 12:56:59;;;;;;;2.03;0.50;;;;;;;;;;5042524;27;82936;-45
2022/07/07 12:59:28;;;;;;;0.70;0.60;;;;;;;;;;5043403;27;84033;-49
2022/07/07 13:01:56;;;;;;;0.77;0.43;;;;;;;;;;5043549;27;81861;-46
2022/07/07 13:04:25;;;;;;;1.17;0.70;;;;;;;;;;5043525;27;82760;-46
2022/07/07 13:06:54;;;;;;;0.83;0.50;;;;;;;;;;5043463;27;82023;-46
2022/07/07 13:09:22;;;;;;;4.40;0.70;;;;;;;;;;5043842;27;82845;-47
2022/07/07 13:12:10;;;;;;;1.60;0.50;;;;;;;;;;5044210;28;82976;-46
2022/07/07 13:14:39;;;;;;;3.07;0.73;;;;;;;;;;5047511;28;83959;-48
2022/07/07 13:17:07;;;;;;;1.33;0.50;;;;;;;;;;5047286;27;81840;-48
2022/07/07 13:19:36;;;;;;;0.73;0.70;;;;;;;;;;5046950;27;82595;-46
2022/07/07 13:22:05;;;;;;;1.40;0.63;;;;;;;;;;5046733;27;83969;-47
2022/07/07 13:24:33;;;;;;;1.50;0.90;;;;;;;;;;5046467;28;84899;-47
2022/07/07 13:27:02;;;;;;;4.53;0.77;;;;;;;;;;5046589;27;81919;-47
2022/07/07 13:29:32;;;;;;;0.97;0.50;;;;;;;;;;5046768;27;83982;-47
2022/07/07 13:32:00;;;;;;;2.33;0.60;;;;;;;;;;5046799;27;81862;-47
2022/07/07 13:34:28;;;;;;;0.40;0.40;;;;;;;;;;5046894;27;83862;-46
2022/07/07 13:36:57;;;;;;;1.23;0.60;;;;;;;;;;5047429;28;81780;-46
2022/07/07 13:39:25;;;;;;;1.20;0.70;;;;;;;;;;5047146;27;82848;-47
2022/07/07 13:41:54;;;;;;;2.03;0.77;;;;;;;;;;5047009;28;84068;-47
2022/07/07 13:44:41;;;;;;;1.33;0.80;;;;;;;;;;5046847;27;82657;-47
2022/07/07 13:47:09;;;;;;;1.70;0.53;;;;;;;;;;5046379;27;82793;-47
2022/07/07 13:49:37;;;;;;;5.40;0.93;;;;;;;;;;5047025;27;83493;-47
2022/07/07 13:52:08;;;;;;;2.63;0.60;;;;;;;;;;5046190;27;82811;-47
2022/07/07 13:54:37;;;;;;;1.70;0.80;;;;;;;;;;5046548;27;81743;-47
2022/07/07 13:57:06;;;;;;;0.40;0.40;;;;;;;;;;5046160;27;82147;-47
2022/07/07 13:59:34;;;;;;;0.30;0.30;;;;;;;;;;5045544;27;82965;-47
2022/07/07 14:02:05;;;;;;;5.37;0.77;;;;;;;;;;5046632;28;84139;-47
2022/07/07 14:04:34;;;;;;;3.77;1.00;;;;;;;;;;5046762;27;82619;-47
2022/07/07 14:07:02;;;;;;;4.40;0.63;;;;;;;;;;5046150;27;81991;-47
2022/07/07 14:09:31;;;;;;;5.73;0.80;;;;;;;;;;5046093;27;82008;-47
2022/07/07 14:11:59;;;;;;;1.77;0.60;;;;;;;;;;5045938;28;85030;-47
2022/07/07 14:14:28;;;;;;;0.70;0.70;;;;;;;;;;5046374;28;83486;-47
2022/07/07 14:16:56;;;;;;;0.60;0.60;;;;;;;;;;5046301;27;82007;-47
2022/07/07 14:19:26;;;;;;;5.90;1.10;;;;;;;;;;5046481;27;82884;-47
2022/07/07 14:21:54;;;;;;;1.73;0.80;;;;;;;;;;5045375;27;83194;-47
2022/07/07 14:24:22;;;;;;;3.03;0.67;;;;;;;;;;5045237;27;82669;-47
2022/07/07 14:26:51;;;;;;;3.93;0.77;;;;;;;;;;5045957;27;81882;-47
2022/07/07 14:29:19;;;;;;;1.80;0.70;;;;;;;;;;5046497;27;82869;-47
2022/07/07 14:31:48;;;;;;;1.13;0.60;;;;;;;;;;5045795;27;83014;-47
2022/07/07 14:34:17;;;;;;;3.57;0.80;;;;;;;;;;5046339;27;83815;-47
2022/07/07 14:36:46;;;;;;;0.60;0.53;;;;;;;;;;5045454;28;82826;-47
2022/07/07 14:39:14;;;;;;;2.10;0.60;;;;;;;;;;5045944;27;83120;-47
2022/07/07 14:41:43;;;;;;;2.13;0.60;;;;;;;;;;5045768;27;81852;-47
2022/07/07 14:44:11;;;;;;;1.73;0.73;;;;;;;;;;5045622;27;82835;-47
2022/07/07 14:46:39;;;;;;;2.07;0.73;;;;;;;;;;5046105;27;81845;-47
2022/07/07 14:49:09;;;;;;;10.20;0.77;;;;;;;;;;5045950;28;83938;-47
2022/07/07 14:51:37;;;;;;;4.17;0.90;;;;;;;;;;5045528;27;83097;-47
2022/07/07 14:54:07;;;;;;;1.27;0.80;;;;;;;;;;5046079;27;83884;-47
2022/07/07 14:56:35;;;;;;;2.83;0.80;;;;;;;;;;5045499;27;81813;-47
2022/07/07 14:59:04;;;;;;;1.10;0.73;;;;;;;;;;5045170;27;83943;-47
2022/07/07 15:01:32;;;;;;;2.53;0.50;;;;;;;;;;5044813;27;84195;-47
2022/07/07 15:04:01;;;;;;;1.37;0.67;;;;;;;;;;5045542;27;83757;-47
2022/07/07 15:06:32;;;;;;;3.30;0.70;;;;;;;;;;5045929;27;81846;-47